Time;durP1;ratioP1;P1;durP2;ratioP2;P2;SDS_P1;SDS_P2;PMS_P1;PMS_P2;Temp;Humidity;BMP_temperature;BMP_pressure;BME280_temperature;BME280_humidity;BME280_pressure;Samples;Min_cycle;Max_cycle;Signal;HPM_P1;HPM_P2
2021/04/22 00:02:39;;;;;;;13.40;9.53;;;;;;;5.75;98.58;100413.84;1760574;81;21304;-82
2021/04/22 00:05:47;;;;;;;15.05;10.95;;;;;;;5.75;98.59;100405.70;1728505;83;21268;-83
2021/04/22 00:08:52;;;;;;;13.95;10.30;;;;;;;5.73;98.51;100414.97;1728729;83;21307;-79
2021/04/22 00:11:56;;;;;;;19.37;11.00;;;;;;;5.74;98.68;100417.56;1728747;83;21224;-83
2021/04/22 00:15:02;;;;;;;23.20;12.65;;;;;;;5.76;98.81;100416.05;1728917;83;21707;-82
2021/04/22 00:18:08;;;;;;;23.12;14.30;;;;;;;5.76;98.83;100416.91;1728910;83;21177;-80
2021/04/22 00:21:13;;;;;;;29.57;15.43;;;;;;;5.76;98.78;100425.05;1728580;83;21276;-82
2021/04/22 00:24:19;;;;;;;22.65;16.73;;;;;;;5.74;98.73;100428.42;1728696;83;21929;-81
2021/04/22 00:27:24;;;;;;;26.00;15.70;;;;;;;5.75;98.90;100426.56;1727821;83;21303;-83
2021/04/22 00:30:29;;;;;;;23.32;15.53;;;;;;;5.79;99.16;100429.34;1728860;83;21271;-83
2021/04/22 00:33:34;;;;;;;20.12;14.47;;;;;;;5.83;99.44;100425.32;1730578;82;21299;-79
2021/04/22 00:36:42;;;;;;;62.85;13.15;;;;;;;5.89;99.70;100432.41;1728740;83;21307;-79
2021/04/22 00:39:49;;;;;;;58.20;12.50;;;;;;;5.95;99.93;100425.58;1728861;83;21276;-81
2021/04/22 00:42:55;;;;;;;34.60;10.95;;;;;;;6.01;100.00;100424.14;1728585;83;21303;-82
2021/04/22 00:46:01;;;;;;;13.58;10.35;;;;;;;5.99;99.98;100432.44;1730335;82;21157;-80
2021/04/22 00:49:06;;;;;;;23.10;11.03;;;;;;;5.96;99.79;100431.86;1728779;83;21335;-80
2021/04/22 00:52:14;;;;;;;22.15;10.70;;;;;;;5.92;99.63;100431.78;1728699;83;21303;-80
2021/04/22 00:55:19;;;;;;;15.85;10.80;;;;;;;5.91;99.63;100437.69;1728786;83;21181;-82
2021/04/22 00:58:24;;;;;;;10.38;7.60;;;;;;;5.82;99.20;100439.90;1692706;83;21817;-82
2021/04/22 01:01:29;;;;;;;29.10;8.78;;;;;;;5.69;98.78;100432.03;1759571;81;21298;-82
2021/04/22 01:04:35;;;;;;;41.98;10.05;;;;;;;5.59;98.60;100439.31;1728694;83;21268;-79
2021/04/22 01:07:42;;;;;;;17.60;11.75;;;;;;;5.54;98.80;100437.52;1727467;83;21318;-82
2021/04/22 01:10:48;;;;;;;9.98;8.15;;;;;;;5.56;99.21;100439.11;1728796;83;21334;-83
2021/04/22 01:13:55;;;;;;;20.40;9.78;;;;;;;5.59;99.54;100439.31;1727370;83;21715;-82
2021/04/22 01:17:01;;;;;;;13.78;9.63;;;;;;;5.56;99.78;100438.26;1761626;81;21180;-79
2021/04/22 01:20:06;;;;;;;17.45;8.30;;;;;;;5.55;100.00;100436.52;1711782;83;21797;-83
2021/04/22 01:23:13;;;;;;;38.38;9.38;;;;;;;5.56;100.00;100437.75;1728834;83;21323;-79
2021/04/22 01:26:20;;;;;;;49.05;13.20;;;;;;;5.57;100.00;100444.03;1760385;81;21809;-82
2021/04/22 01:29:25;;;;;;;44.58;10.03;;;;;;;5.63;100.00;100440.74;1760460;81;21272;-79
2021/04/22 01:32:27;;;;;;;19.20;9.05;;;;;;;5.69;100.00;100440.17;1760447;81;21181;-82
2021/04/22 01:35:38;;;;;;;32.23;8.15;;;;;;;5.71;100.00;100443.62;1711502;83;21268;-82
2021/04/22 01:38:45;;;;;;;12.88;8.30;;;;;;;5.71;100.00;100446.33;1760391;81;21307;-83
2021/04/22 01:41:51;;;;;;;17.75;8.30;;;;;;;5.72;100.00;100445.83;1730544;82;21268;-82
2021/04/22 01:44:56;;;;;;;11.35;7.85;;;;;;;5.76;100.00;100448.12;1760447;81;21133;-79
2021/04/22 01:48:02;;;;;;;20.02;8.63;;;;;;;5.77;100.00;100451.69;1759315;81;21310;-83
2021/04/22 01:51:08;;;;;;;27.00;6.97;;;;;;;5.78;100.00;100446.11;1719664;81;21797;-79
2021/04/22 01:54:14;;;;;;;32.67;7.78;;;;;;;5.80;100.00;100454.13;1760302;81;21267;-79
2021/04/22 01:57:20;;;;;;;11.90;5.92;;;;;;;5.77;100.00;100453.90;1742011;81;21833;-79
2021/04/22 02:00:30;;;;;;;34.63;7.28;;;;;;;5.75;100.00;100453.20;1741034;81;21299;-79
2021/04/22 02:03:37;;;;;;;;;;;;;;;5.74;100.00;100459.63;1752059;82;21306;-79
2021/04/22 02:06:43;;;;;;;18.00;8.53;;;;;;;5.78;100.00;100463.75;1749504;82;20259;-83
2021/04/22 02:09:49;;;;;;;10.23;8.33;;;;;;;5.85;100.00;100462.70;1743693;81;21829;-81
2021/04/22 02:12:57;;;;;;;25.72;9.18;;;;;;;5.90;100.00;100455.84;1749163;82;21148;-78
2021/04/22 02:16:03;;;;;;;23.87;11.93;;;;;;;5.96;100.00;100461.73;1768109;81;21294;-81
2021/04/22 02:19:10;;;;;;;23.38;15.03;;;;;;;6.04;100.00;100469.52;1747096;81;21297;-79
2021/04/22 02:22:16;;;;;;;21.57;13.35;;;;;;;6.11;100.00;100471.14;1748225;80;21301;-79
2021/04/22 02:25:24;;;;;;;15.78;12.25;;;;;;;6.17;100.00;100478.74;1767911;81;21310;-83
2021/04/22 02:28:31;;;;;;;24.52;14.87;;;;;;;6.22;100.00;100477.80;1747999;81;21274;-83
2021/04/22 02:31:38;;;;;;;15.25;10.35;;;;;;;6.27;100.00;100470.59;1767946;81;21132;-79
2021/04/22 02:34:44;;;;;;;26.87;12.40;;;;;;;6.36;100.00;100480.58;1748378;81;21824;-79
2021/04/22 02:37:49;;;;;;;33.15;10.50;;;;;;;6.43;100.00;100484.42;1747145;82;21713;-83
2021/04/22 02:40:55;;;;;;;18.20;11.65;;;;;;;6.46;100.00;100482.78;1727033;82;21930;-79
2021/04/22 02:44:01;;;;;;;17.45;9.88;;;;;;;6.46;100.00;100491.44;1749140;82;21314;-80
2021/04/22 02:47:06;;;;;;;15.70;11.50;;;;;;;6.44;100.00;100492.92;1768184;81;21738;-83
2021/04/22 02:50:14;;;;;;;23.00;10.28;;;;;;;6.44;100.00;100492.06;1707865;82;21711;-83
2021/04/22 02:53:21;;;;;;;21.93;10.13;;;;;;;6.46;100.00;100503.16;1749276;82;21310;-83
2021/04/22 02:56:27;;;;;;;29.50;11.25;;;;;;;6.49;100.00;100500.64;1726703;82;21286;-83
2021/04/22 02:59:33;;;;;;;18.77;12.63;;;;;;;6.51;100.00;100500.86;1748398;82;21270;-83
2021/04/22 03:02:38;;;;;;;23.47;13.45;;;;;;;6.55;100.00;100498.72;1747796;82;21167;-83
2021/04/22 03:05:44;;;;;;;20.50;12.65;;;;;;;6.58;100.00;100503.33;1767681;81;21267;-83
2021/04/22 03:08:51;;;;;;;17.32;13.25;;;;;;;6.63;100.00;100508.33;1723489;82;21215;-83
2021/04/22 03:11:56;;;;;;;25.40;11.73;;;;;;;6.69;100.00;100511.84;1767841;80;21204;-84
2021/04/22 03:15:01;;;;;;;16.73;12.75;;;;;;;6.74;100.00;100513.62;1746038;82;21298;-83
2021/04/22 03:18:07;;;;;;;26.35;10.82;;;;;;;6.78;100.00;100515.05;1754685;81;21335;-83
2021/04/22 03:21:14;;;;;;;12.40;8.05;;;;;;;6.81;100.00;100518.81;1745988;82;21275;-84
2021/04/22 03:24:22;;;;;;;13.70;7.62;;;;;;;6.80;100.00;100526.62;1743959;82;21180;-84
2021/04/22 03:27:28;;;;;;;9.80;8.80;;;;;;;6.77;100.00;100522.82;1743146;82;21330;-84
2021/04/22 03:30:37;;;;;;;38.28;9.25;;;;;;;6.74;100.00;100524.50;1738086;82;21291;-83
2021/04/22 03:33:42;;;;;;;11.18;8.23;;;;;;;6.76;100.00;100525.19;1742119;82;21298;-84
2021/04/22 03:36:48;;;;;;;12.60;7.75;;;;;;;6.83;100.00;100525.48;1746035;82;21813;-84
2021/04/22 03:39:53;;;;;;;16.55;8.58;;;;;;;6.84;100.00;100536.20;1738213;82;21302;-84
2021/04/22 03:42:58;;;;;;;17.45;7.30;;;;;;;6.89;100.00;100537.12;1729041;82;21330;-84
2021/04/22 03:46:02;;;;;;;7.03;6.30;;;;;;;6.98;100.00;100546.27;1725100;82;21286;-84
2021/04/22 03:49:08;;;;;;;14.38;7.03;;;;;;;6.96;100.00;100546.39;1742185;82;21290;-84
2021/04/22 03:52:15;;;;;;;18.27;7.05;;;;;;;6.94;100.00;100553.00;1746014;82;21322;-84
2021/04/22 03:55:23;;;;;;;23.12;7.53;;;;;;;6.95;100.00;100553.34;1738244;82;21675;-84
2021/04/22 03:58:28;;;;;;;16.60;8.10;;;;;;;6.98;100.00;100559.86;1727256;82;21293;-84
2021/04/22 04:01:36;;;;;;;15.90;8.73;;;;;;;6.99;100.00;100567.01;1725222;82;21271;-84
2021/04/22 04:04:41;;;;;;;24.85;8.10;;;;;;;7.05;100.00;100569.13;1731919;82;21188;-80
2021/04/22 04:07:47;;;;;;;24.60;8.68;;;;;;;7.14;100.00;100566.37;1730752;82;21723;-83
2021/04/22 04:10:51;;;;;;;16.00;8.43;;;;;;;7.25;100.00;100565.37;1761782;81;21845;-84
2021/04/22 04:13:58;;;;;;;11.78;8.75;;;;;;;7.30;100.00;100571.72;1760508;81;21291;-84
2021/04/22 04:17:05;;;;;;;17.35;7.42;;;;;;;7.26;99.97;100572.52;1760475;81;21801;-84
2021/04/22 04:20:14;;;;;;;13.08;8.53;;;;;;;7.28;99.65;100580.52;1760422;81;21318;-84
2021/04/22 04:23:20;;;;;;;10.05;6.28;;;;;;;7.28;99.29;100579.16;1760392;81;21813;-84
2021/04/22 04:26:25;;;;;;;11.30;7.40;;;;;;;7.35;99.28;100578.42;1760499;81;21259;-84
2021/04/22 04:29:31;;;;;;;17.48;7.10;;;;;;;7.43;99.15;100574.47;1760320;81;21595;-84
2021/04/22 04:32:36;;;;;;;20.62;7.03;;;;;;;7.54;99.07;100575.27;1760479;81;21227;-84
2021/04/22 04:35:42;;;;;;;18.62;7.35;;;;;;;7.65;98.75;100580.51;1760484;81;21259;-84
2021/04/22 04:38:47;;;;;;;7.33;5.58;;;;;;;7.71;98.28;100587.21;1760223;81;21323;-84
2021/04/22 04:41:53;;;;;;;11.97;6.62;;;;;;;7.73;97.68;100590.15;1760521;81;21157;-84
2021/04/22 04:44:58;;;;;;;11.20;8.40;;;;;;;7.74;97.18;100592.37;1760470;81;21775;-84
2021/04/22 04:48:03;;;;;;;8.93;6.15;;;;;;;7.74;96.95;100598.66;1760504;81;21841;-84
2021/04/22 04:51:09;;;;;;;7.97;6.50;;;;;;;7.83;96.92;100600.48;1742743;81;21277;-85
2021/04/22 04:54:15;;;;;;;8.55;7.33;;;;;;;7.93;96.86;100605.88;1750215;81;21212;-84
2021/04/22 04:57:21;;;;;;;9.10;7.03;;;;;;;8.03;96.79;100603.09;1730649;82;21738;-84
2021/04/22 05:00:20;;;;;;;21.07;7.15;;;;;;;8.07;96.54;100608.08;1723383;82;21298;-85
2021/04/22 05:03:25;;;;;;;13.68;6.55;;;;;;;8.19;96.52;100614.19;1739833;82;21293;-84
2021/04/22 05:06:30;;;;;;;7.65;6.75;;;;;;;8.23;96.12;100614.71;1755301;80;21246;-85
2021/04/22 05:09:36;;;;;;;9.78;6.42;;;;;;;8.20;95.31;100622.20;1744847;80;21282;-84
2021/04/22 05:12:41;;;;;;;8.85;6.78;;;;;;;8.22;94.90;100618.45;1767230;80;21175;-84
2021/04/22 05:15:46;;;;;;;7.90;6.08;;;;;;;8.26;94.53;100620.72;1732108;82;21744;-85
2021/04/22 05:18:54;;;;;;;7.78;5.85;;;;;;;8.32;94.62;100625.55;1733263;81;21207;-85
2021/04/22 05:21:59;;;;;;;13.18;6.80;;;;;;;8.39;94.34;100628.56;1736281;82;21824;-85
2021/04/22 05:25:05;;;;;;;12.28;6.83;;;;;;;8.43;94.20;100634.92;1731657;82;21294;-85
2021/04/22 05:28:09;;;;;;;7.45;5.80;;;;;;;8.48;93.99;100640.41;1719933;82;21297;-84
2021/04/22 05:31:08;;;;;;;9.10;7.33;;;;;;;8.50;93.68;100641.10;1735562;81;21274;-84
2021/04/22 05:34:14;;;;;;;11.65;6.42;;;;;;;8.45;93.19;100648.38;1718246;82;21242;-84
2021/04/22 05:37:20;;;;;;;6.60;5.72;;;;;;;8.44;93.25;100644.80;1777259;79;21322;-85
2021/04/22 05:40:26;;;;;;;12.20;7.60;;;;;;;8.41;92.91;100642.38;1763270;80;21313;-85
2021/04/22 05:43:32;;;;;;;11.70;8.40;;;;;;;8.40;92.69;100644.75;1756396;80;21334;-84
2021/04/22 05:46:37;;;;;;;8.85;5.15;;;;;;;8.41;92.73;100642.38;1772499;79;21845;-85
2021/04/22 05:49:45;;;;;;;5.30;4.37;;;;;;;8.42;92.83;100652.29;1753974;80;21266;-84
2021/04/22 05:52:50;;;;;;;7.28;4.95;;;;;;;8.36;92.76;100653.36;1767135;79;21886;-84
2021/04/22 05:55:55;;;;;;;7.87;6.00;;;;;;;8.33;92.98;100657.78;1760697;79;21328;-85
2021/04/22 05:59:00;;;;;;;5.47;4.97;;;;;;;8.41;93.47;100663.33;1762527;80;21258;-85
2021/04/22 06:02:06;;;;;;;6.70;5.58;;;;;;;8.54;94.04;100663.81;1759379;79;21239;-85
2021/04/22 06:05:12;;;;;;;9.45;6.70;;;;;;;8.69;94.06;100669.58;1776872;80;21303;-84
2021/04/22 06:08:18;;;;;;;7.03;5.67;;;;;;;8.81;94.07;100671.59;1755476;80;21262;-84
2021/04/22 06:11:24;;;;;;;7.42;6.20;;;;;;;9.01;94.06;100666.30;1758216;80;21291;-85
2021/04/22 06:14:31;;;;;;;7.17;6.33;;;;;;;9.04;92.71;100669.23;1729612;80;21294;-85
2021/04/22 06:17:37;;;;;;;8.13;6.42;;;;;;;8.98;92.15;100669.34;1737362;80;21266;-85
2021/04/22 06:20:42;;;;;;;8.73;6.75;;;;;;;9.00;92.16;100661.88;1736256;80;21796;-85
2021/04/22 06:23:50;;;;;;;9.98;6.12;;;;;;;9.09;92.42;100666.89;1736805;81;21824;-85
2021/04/22 06:26:55;;;;;;;7.87;5.20;;;;;;;9.23;92.71;100670.42;1735110;82;21152;-85
2021/04/22 06:30:02;;;;;;;8.15;6.72;;;;;;;9.44;92.90;100672.26;1737200;81;21132;-84
2021/04/22 06:33:08;;;;;;;6.53;5.47;;;;;;;9.57;91.85;100672.35;1727315;82;21298;-85
2021/04/22 06:36:14;;;;;;;7.28;5.50;;;;;;;9.70;91.33;100677.73;1735790;81;21163;-85
2021/04/22 06:39:19;;;;;;;6.78;5.92;;;;;;;9.73;90.09;100682.00;1743444;80;21694;-80
2021/04/22 06:42:25;;;;;;;7.58;5.78;;;;;;;9.70;89.28;100687.80;1726818;80;21319;-79
2021/04/22 06:45:32;;;;;;;9.93;6.05;;;;;;;9.77;89.25;100685.27;1736870;80;21774;-81
2021/04/22 06:48:38;;;;;;;7.83;6.33;;;;;;;9.86;89.17;100687.88;1740449;80;21272;-80
2021/04/22 06:51:44;;;;;;;6.97;5.90;;;;;;;9.93;88.97;100692.20;1733388;80;21600;-80
2021/04/22 06:54:50;;;;;;;8.33;6.83;;;;;;;10.05;89.10;100693.61;1733513;80;21899;-81
2021/04/22 06:57:57;;;;;;;10.78;5.22;;;;;;;10.28;89.43;100690.33;1725535;80;21800;-81
2021/04/22 07:01:02;;;;;;;6.22;5.62;;;;;;;10.55;89.01;100691.45;1736383;80;21159;-81
2021/04/22 07:04:08;;;;;;;8.30;6.28;;;;;;;10.79;87.82;100693.89;1730941;81;21270;-81
2021/04/22 07:07:15;;;;;;;7.92;6.92;;;;;;;10.90;86.51;100699.88;1739182;80;21322;-80
2021/04/22 07:10:22;;;;;;;9.70;7.65;;;;;;;10.98;85.76;100697.16;1733493;80;21279;-80
2021/04/22 07:13:28;;;;;;;10.85;6.45;;;;;;;11.10;85.28;100691.34;1735528;80;21838;-80
2021/04/22 07:16:33;;;;;;;8.53;6.17;;;;;;;11.18;84.53;100694.09;1728489;80;21504;-80
2021/04/22 07:19:40;;;;;;;5.30;4.78;;;;;;;11.20;84.41;100696.16;1736246;81;21250;-80
2021/04/22 07:22:46;;;;;;;12.10;6.33;;;;;;;11.25;84.45;100697.36;1732058;81;21337;-81
2021/04/22 07:25:52;;;;;;;8.40;6.00;;;;;;;11.35;84.20;100694.44;1736445;81;21250;-80
2021/04/22 07:28:58;;;;;;;8.10;6.78;;;;;;;11.44;83.71;100698.89;1727877;80;21287;-80
2021/04/22 07:32:03;;;;;;;9.63;6.97;;;;;;;11.44;83.01;100704.37;1733692;80;21827;-80
2021/04/22 07:35:10;;;;;;;8.00;6.53;;;;;;;11.56;82.52;100708.96;1730617;80;21305;-80
2021/04/22 07:38:19;;;;;;;10.63;7.95;;;;;;;11.70;82.90;100715.63;1736896;80;21167;-80
2021/04/22 07:41:24;;;;;;;12.45;8.23;;;;;;;11.89;82.81;100723.49;1740282;80;21286;-79
2021/04/22 07:44:31;;;;;;;9.53;7.85;;;;;;;11.98;81.47;100715.59;1736789;80;21165;-80
2021/04/22 07:47:37;;;;;;;10.93;7.78;;;;;;;11.98;80.50;100713.37;1746809;80;21175;-82
2021/04/22 07:50:43;;;;;;;10.13;8.23;;;;;;;11.95;80.50;100714.59;1739266;80;21156;-81
2021/04/22 07:53:52;;;;;;;11.30;8.78;;;;;;;12.07;80.91;100719.69;1733671;80;21831;-82
2021/04/22 07:57:05;;;;;;;11.12;7.92;;;;;;;12.25;81.19;100713.45;1833452;76;22212;-81
2021/04/22 08:00:16;;;;;;;11.30;7.75;;;;;;;12.37;80.96;100714.75;1800230;77;21256;-82
2021/04/22 08:03:21;;;;;;;12.00;8.93;;;;;;;12.54;80.51;100716.40;1807697;77;21274;-81
2021/04/22 08:06:28;;;;;;;12.75;9.38;;;;;;;12.73;80.28;100716.47;1740544;80;21203;-79
2021/04/22 08:09:36;;;;;;;11.83;8.63;;;;;;;12.81;78.97;100707.86;1745174;80;21212;-79
2021/04/22 08:12:42;;;;;;;11.70;9.40;;;;;;;12.86;78.37;100719.15;1729197;80;21325;-78
2021/04/22 08:15:51;;;;;;;13.43;9.58;;;;;;;12.92;78.34;100710.18;1757589;79;21152;-78
2021/04/22 08:18:59;;;;;;;10.55;8.73;;;;;;;12.99;77.51;100713.41;1759326;79;21181;-81
2021/04/22 08:22:07;;;;;;;10.80;6.95;;;;;;;13.00;76.89;100715.63;1756722;79;21848;-79
2021/04/22 08:25:19;;;;;;;12.95;7.60;;;;;;;13.04;77.56;100710.95;1757702;79;21698;-80
2021/04/22 08:28:23;;;;;;;;;;;;;;;13.11;77.23;100712.44;1754730;80;21157;-81
2021/04/22 08:31:31;;;;;;;10.45;7.45;;;;;;;13.21;77.57;100717.69;1752097;80;20314;-82
2021/04/22 08:34:36;;;;;;;11.35;8.70;;;;;;;13.36;76.94;100715.02;1747899;80;21856;-81
2021/04/22 08:37:42;;;;;;;11.95;7.80;;;;;;;13.46;76.99;100710.16;1740107;80;21290;-81
2021/04/22 08:40:49;;;;;;;8.70;6.83;;;;;;;13.58;77.27;100707.80;1743657;80;21342;-81
2021/04/22 08:43:54;;;;;;;9.58;7.35;;;;;;;13.64;76.04;100701.54;1744854;81;21669;-81
2021/04/22 08:47:00;;;;;;;8.10;7.17;;;;;;;13.69;75.83;100705.46;1746880;80;21303;-81
2021/04/22 08:50:06;;;;;;;9.03;6.08;;;;;;;13.73;75.06;100712.80;1745422;79;21271;-81
2021/04/22 08:53:17;;;;;;;9.18;7.62;;;;;;;13.78;75.21;100708.95;1757148;80;21464;-81
2021/04/22 08:56:24;;;;;;;7.45;6.53;;;;;;;13.82;75.00;100710.30;1735523;81;21798;-82
2021/04/22 08:59:30;;;;;;;9.10;6.80;;;;;;;13.88;75.16;100708.19;1729614;82;21291;-82
2021/04/22 09:02:37;;;;;;;8.35;7.45;;;;;;;13.92;75.44;100714.14;1783256;79;21153;-80
2021/04/22 09:05:43;;;;;;;8.65;7.72;;;;;;;13.95;75.38;100712.41;1781535;79;21141;-80
2021/04/22 09:08:58;;;;;;;12.55;7.83;;;;;;;13.97;75.27;100703.42;1784056;79;21284;-80
2021/04/22 09:12:03;;;;;;;15.28;8.45;;;;;;;13.99;75.07;100705.48;1785907;78;21212;-80
2021/04/22 09:15:17;;;;;;;13.03;7.65;;;;;;;14.04;75.09;100696.14;1786600;78;21320;-81
2021/04/22 09:18:26;;;;;;;12.10;8.50;;;;;;;14.12;75.65;100693.83;1782996;79;21264;-80
2021/04/22 09:21:34;;;;;;;9.20;7.55;;;;;;;14.10;75.17;100688.50;1779188;79;21244;-80
2021/04/22 09:24:38;;;;;;;9.25;6.90;;;;;;;14.08;75.63;100689.22;1787210;78;21284;-80
2021/04/22 09:27:46;;;;;;;12.73;6.83;;;;;;;14.05;74.91;100686.84;1780610;79;21178;-81
2021/04/22 09:30:54;;;;;;;13.43;8.25;;;;;;;14.02;75.74;100687.20;1785104;78;21779;-80
2021/04/22 09:34:20;;;;;;;14.73;8.53;;;;;;;14.01;76.45;100687.73;1785896;79;21832;-80
2021/04/22 09:37:27;;;;;;;14.70;7.67;;;;;;;13.94;75.42;100686.80;1786349;78;21154;-81
2021/04/22 09:40:40;;;;;;;10.95;7.35;;;;;;;13.91;75.61;100687.17;1783240;79;21158;-81
2021/04/22 09:43:47;;;;;;;13.15;9.05;;;;;;;13.92;75.92;100688.87;1778823;78;21299;-80
2021/04/22 09:46:54;;;;;;;14.45;7.37;;;;;;;13.92;75.24;100687.49;1783409;78;21266;-80
2021/04/22 09:50:08;;;;;;;9.68;7.70;;;;;;;13.89;75.57;100683.77;1785139;79;21196;-81
2021/04/22 09:53:14;;;;;;;14.68;8.25;;;;;;;13.89;74.68;100680.17;1783688;79;21252;-81
2021/04/22 09:56:20;;;;;;;14.83;9.75;;;;;;;13.88;74.38;100682.06;1784490;78;21743;-80
2021/04/22 09:59:28;;;;;;;13.45;8.33;;;;;;;13.89;75.24;100676.89;1759968;79;21962;-81
2021/04/22 10:02:35;;;;;;;19.15;9.40;;;;;;;13.94;74.59;100679.08;1757557;81;21299;-80
2021/04/22 10:05:42;;;;;;;19.55;10.60;;;;;;;13.96;73.83;100672.33;1754643;79;21287;-80
2021/04/22 10:08:51;;;;;;;17.37;10.55;;;;;;;13.97;73.28;100672.69;1754390;81;22184;-80
2021/04/22 10:12:00;;;;;;;18.00;8.98;;;;;;;13.96;74.18;100668.20;1757368;79;21282;-81
2021/04/22 10:15:25;;;;;;;18.15;10.43;;;;;;;14.04;74.07;100670.86;1760703;79;21255;-81
2021/04/22 10:18:44;;;;;;;20.17;9.38;;;;;;;14.08;73.45;100671.34;1755936;81;21805;-81
2021/04/22 10:21:50;;;;;;;16.87;10.00;;;;;;;14.10;73.21;100676.12;1741431;79;21258;-81
2021/04/22 10:25:05;;;;;;;13.43;9.23;;;;;;;14.13;71.97;100665.27;1755241;79;21144;-81
2021/04/22 10:28:22;;;;;;;24.67;11.12;;;;;;;14.14;71.98;100671.09;1759589;79;21351;-81
2021/04/22 10:31:27;;;;;;;15.10;10.23;;;;;;;14.16;72.60;100674.50;1699717;82;21156;-82
2021/04/22 10:34:35;;;;;;;18.95;10.30;;;;;;;14.19;72.87;100671.37;1702521;82;21809;-82
2021/04/22 10:37:41;;;;;;;16.10;10.05;;;;;;;14.21;73.59;100667.90;1696672;82;21284;-82
2021/04/22 10:40:52;;;;;;;20.55;9.58;;;;;;;14.23;72.90;100665.30;1693748;82;21271;-82
2021/04/22 10:43:58;;;;;;;24.52;11.38;;;;;;;14.31;72.26;100666.58;1708207;81;21185;-81
2021/04/22 10:47:06;;;;;;;20.92;10.30;;;;;;;14.36;71.62;100662.41;1705460;81;21346;-82
2021/04/22 10:50:19;;;;;;;10.98;9.23;;;;;;;14.40;71.89;100665.95;1706487;81;21173;-82
2021/04/22 10:53:26;;;;;;;12.63;8.60;;;;;;;14.44;71.12;100660.36;1705333;83;21169;-81
2021/04/22 10:56:35;;;;;;;11.53;8.40;;;;;;;14.49;71.05;100659.33;1705588;83;21332;-82
2021/04/22 10:59:44;;;;;;;16.35;9.83;;;;;;;14.52;69.46;100656.16;1735907;80;21845;-82
2021/04/22 11:02:58;;;;;;;20.08;10.40;;;;;;;14.50;70.17;100662.40;1749233;80;21173;-82
2021/04/22 11:06:17;;;;;;;16.77;8.68;;;;;;;14.53;70.29;100657.02;1742767;81;21212;-80
2021/04/22 11:09:26;;;;;;;14.98;9.35;;;;;;;14.56;69.65;100655.27;1746483;81;22217;-81
2021/04/22 11:12:37;;;;;;;21.12;9.40;;;;;;;14.57;69.50;100649.55;1746913;80;21865;-82
2021/04/22 11:15:43;;;;;;;24.12;10.63;;;;;;;14.59;69.12;100643.02;1740858;80;21292;-82
2021/04/22 11:18:54;;;;;;;16.42;10.80;;;;;;;14.60;68.76;100639.22;1737766;80;21961;-83
2021/04/22 11:22:07;;;;;;;27.05;10.13;;;;;;;14.62;69.26;100637.11;1739158;80;21766;-82
2021/04/22 11:25:13;;;;;;;20.52;10.88;;;;;;;14.67;69.23;100629.96;1738405;80;21797;-82
2021/04/22 11:28:20;;;;;;;19.87;9.08;;;;;;;14.71;67.77;100627.15;1739554;80;21350;-82
2021/04/22 11:31:33;;;;;;;15.88;8.98;;;;;;;14.66;69.59;100630.17;1749536;80;21153;-82
2021/04/22 11:34:42;;;;;;;12.93;8.70;;;;;;;14.65;69.14;100621.59;1740265;81;21324;-82
2021/04/22 11:37:59;;;;;;;10.05;7.28;;;;;;;14.68;69.06;100617.92;1747549;80;21833;-82
2021/04/22 11:41:06;;;;;;;12.45;5.83;;;;;;;14.74;68.30;100616.28;1732925;81;21259;-82
2021/04/22 11:44:18;;;;;;;9.08;6.80;;;;;;;14.76;67.13;100614.17;1745431;80;21307;-82
2021/04/22 11:47:29;;;;;;;9.68;6.20;;;;;;;14.77;66.82;100615.88;1749627;80;21216;-82
2021/04/22 11:50:37;;;;;;;8.05;6.25;;;;;;;14.77;66.60;100612.63;1731596;81;21284;-82
2021/04/22 11:53:47;;;;;;;11.10;6.15;;;;;;;14.78;65.94;100607.44;1739468;81;21814;-82
2021/04/22 11:57:08;;;;;;;9.10;6.12;;;;;;;14.82;64.68;100610.66;1747065;81;21252;-81
2021/04/22 12:00:15;;;;;;;8.40;5.83;;;;;;;14.85;65.50;100606.11;1743458;80;21246;-82
2021/04/22 12:03:24;;;;;;;7.15;5.28;;;;;;;14.85;61.41;100608.87;1739215;80;21270;-82
2021/04/22 12:06:29;;;;;;;6.20;5.22;;;;;;;14.86;61.10;100605.05;1741002;80;21144;-81
2021/04/22 12:09:39;;;;;;;6.87;5.62;;;;;;;14.88;64.01;100609.86;1744296;81;21746;-82
2021/04/22 12:12:47;;;;;;;10.50;7.08;;;;;;;14.88;63.90;100604.35;1739460;81;21474;-81
2021/04/22 12:15:56;;;;;;;12.40;6.53;;;;;;;14.87;63.87;100606.78;1726175;80;21288;-82
2021/04/22 12:19:01;;;;;;;9.05;6.22;;;;;;;14.88;63.02;100598.84;1732825;81;21187;-82
2021/04/22 12:22:08;;;;;;;10.05;7.65;;;;;;;14.89;62.39;100601.92;1739121;81;21313;-82
2021/04/22 12:25:28;;;;;;;12.18;7.53;;;;;;;14.91;62.84;100605.84;1741886;81;21753;-82
2021/04/22 12:28:34;;;;;;;7.72;4.90;;;;;;;14.93;63.50;100603.76;1735569;80;21754;-82
2021/04/22 12:31:56;;;;;;;12.43;6.65;;;;;;;14.96;61.33;100600.59;1747403;80;21179;-82
2021/04/22 12:35:04;;;;;;;10.45;6.65;;;;;;;15.00;61.38;100596.39;1741921;81;21136;-82
2021/04/22 12:38:23;;;;;;;15.30;7.37;;;;;;;15.06;61.06;100596.47;1731907;81;21819;-82
2021/04/22 12:41:28;;;;;;;12.85;8.03;;;;;;;15.07;60.78;100594.56;1736111;81;21271;-82
2021/04/22 12:44:34;;;;;;;11.48;8.83;;;;;;;15.02;61.79;100591.55;1746208;80;21247;-82
2021/04/22 12:48:03;;;;;;;11.93;7.45;;;;;;;15.02;62.81;100598.44;1749520;81;21633;-82
2021/04/22 12:51:07;;;;;;;16.23;6.47;;;;;;;15.03;63.48;100591.34;1736672;80;21805;-82
2021/04/22 12:54:12;;;;;;;10.63;7.20;;;;;;;15.02;62.63;100585.52;1743535;81;21196;-82
2021/04/22 12:57:19;;;;;;;11.43;5.90;;;;;;;15.02;62.13;100588.27;1716629;81;21266;-82
2021/04/22 13:00:33;;;;;;;12.82;6.30;;;;;;;15.01;61.15;100587.95;1749954;80;21769;-81
2021/04/22 13:03:41;;;;;;;11.38;7.30;;;;;;;15.01;59.89;100587.11;1762191;80;21188;-82
2021/04/22 13:06:52;;;;;;;9.73;7.03;;;;;;;15.00;61.55;100586.75;1754259;80;21707;-82
2021/04/22 13:09:59;;;;;;;17.25;7.10;;;;;;;14.97;59.84;100581.13;1772343;80;21177;-82
2021/04/22 13:13:05;;;;;;;16.48;7.55;;;;;;;14.96;60.47;100575.80;1758972;80;21294;-82
2021/04/22 13:16:16;;;;;;;10.78;7.17;;;;;;;14.92;60.62;100578.66;1763825;80;21145;-82
2021/04/22 13:19:23;;;;;;;9.45;6.42;;;;;;;14.91;61.72;100575.02;1730169;82;21290;-82
2021/04/22 13:22:29;;;;;;;6.55;4.58;;;;;;;14.92;61.70;100572.62;1735465;80;21271;-82
2021/04/22 13:25:39;;;;;;;8.43;6.35;;;;;;;14.90;59.70;100580.20;1737579;81;21778;-82
2021/04/22 13:28:46;;;;;;;9.65;5.72;;;;;;;14.88;59.41;100574.59;1738247;81;21319;-82
2021/04/22 13:31:53;;;;;;;11.95;6.22;;;;;;;14.83;60.15;100573.80;1733384;82;21293;-82
2021/04/22 13:35:02;;;;;;;8.95;5.65;;;;;;;14.80;60.03;100568.67;1734799;82;21290;-82
2021/04/22 13:38:23;;;;;;;9.45;6.20;;;;;;;14.76;58.67;100572.87;1739238;81;21292;-82
2021/04/22 13:41:31;;;;;;;9.18;5.92;;;;;;;14.73;59.74;100574.66;1734641;81;21272;-82
2021/04/22 13:44:44;;;;;;;12.93;6.47;;;;;;;14.72;60.88;100574.31;1751070;80;21843;-82
2021/04/22 13:47:48;;;;;;;13.45;6.42;;;;;;;14.69;60.94;100569.22;1730263;82;21339;-82
2021/04/22 13:50:56;;;;;;;15.25;6.87;;;;;;;14.66;61.10;100568.23;1750637;81;22028;-82
2021/04/22 13:54:21;;;;;;;14.47;6.50;;;;;;;14.62;61.42;100565.00;1728266;80;21339;-82
2021/04/22 13:57:33;;;;;;;10.08;6.37;;;;;;;14.60;60.90;100567.64;1759886;80;21314;-82
2021/04/22 14:00:41;;;;;;;10.68;5.60;;;;;;;14.56;60.45;100562.52;1716122;82;21327;-82
2021/04/22 14:03:47;;;;;;;8.70;5.62;;;;;;;14.51;60.18;100560.88;1711819;82;21338;-81
2021/04/22 14:06:56;;;;;;;10.43;5.78;;;;;;;14.47;60.64;100567.79;1741980;82;21306;-82
2021/04/22 14:10:04;;;;;;;12.00;6.08;;;;;;;14.45;61.39;100561.64;1741783;82;21318;-82
2021/04/22 14:13:26;;;;;;;12.95;6.08;;;;;;;14.46;62.17;100554.23;1755282;81;21618;-82
2021/04/22 14:16:34;;;;;;;14.33;6.33;;;;;;;14.44;63.09;100558.54;1740809;82;21224;-82
2021/04/22 14:19:41;;;;;;;15.35;5.40;;;;;;;14.43;62.64;100555.98;1754341;81;21194;-80
2021/04/22 14:22:47;;;;;;;14.65;5.87;;;;;;;14.40;62.01;100555.03;1717750;82;21247;-80
2021/04/22 14:25:53;;;;;;;10.20;6.20;;;;;;;14.37;61.79;100556.78;1706384;83;21167;-80
2021/04/22 14:28:59;;;;;;;11.12;5.97;;;;;;;14.35;62.48;100556.11;1734684;83;21325;-80